Главная страница
METAR-TAF:

METAR-TAF

Аэропорты :

Стригино

Нижний Новгород, Россия

широта: 56-19-48N, долгота: 044-00E, высота над уровнем моря: 78 м

Текущие метеонаблюдения

Эта сводка был подготовлена 32 минут назад, в 19:00 UTC
Ветер 8 Узел от западный
Температура 11°C
Влажность 82%
Давление 1023 hPa
Видимость 10 км и более
Нет облачности ниже 1500 м, и нет кучево-дождевой облачности

METAR: UWGG 151900Z 27004MPS CAVOK 11/08 Q1023 R36R/090070 NOSIG

Время: 22:32 (19:32 UTC)

Прогноз

Эта сводка был подготовлена 2 часа и 35 минут назад, в 16:57 UTC
Прогноз действительный с 15-го 18 UTC до 16-го 18 UTC
Ветер 6 Узел от западный
Видимость 10 км и более
Отдельные облака на высоте 1600 фута
временами
С 16-го 00 UTC до 16-го 06 UTC
Видимость: 0300 м
на высоте 400 фута
туман

TAF: UWGG 151657Z 1518/1618 27003MPS 9999 SCT016 TX15/1612Z TN10/1603Z TEMPO 1600/1606 0300 FG VV004

Метеонаблюдения и прогнозы для более 4000 аэропортов (сводки METAR и TAF).

Имеющиеся станции представлены на карте желтыми и красными точками.

Чтобы увидеть название станции, наведите на нее мышь.

Затем щелкните, чтобы увидеть метеонаблюдения и метеопрогнозы.

Управление картой: чтобы увеличить масштаб, щелкните зеленые кнопки с черным крестиком; чтобы уменьшить масштаб, щелкните зеленую кнопку с тире; для просмотра соседних карт щелкайте зеленые стрелки.


METAR-TAF: